sensor_id;sensor_type;location;lat;lon;timestamp;temperature;humidity
25991;DHT22;13779;-33.886;151.198;2023-11-22T00:01:06;23.30;99.90
25991;DHT22;13779;-33.886;151.198;2023-11-22T00:03:39;23.40;99.90
25991;DHT22;13779;-33.886;151.198;2023-11-22T00:06:09;23.50;99.90
25991;DHT22;13779;-33.886;151.198;2023-11-22T00:08:39;23.50;99.90
25991;DHT22;13779;-33.886;151.198;2023-11-22T00:11:09;23.50;99.90
25991;DHT22;13779;-33.886;151.198;2023-11-22T00:13:40;23.50;99.90
25991;DHT22;13779;-33.886;151.198;2023-11-22T00:16:10;23.40;99.90
25991;DHT22;13779;-33.886;151.198;2023-11-22T00:18:40;23.40;99.90
25991;DHT22;13779;-33.886;151.198;2023-11-22T00:21:10;23.50;99.90
25991;DHT22;13779;-33.886;151.198;2023-11-22T00:23:40;23.50;99.90
25991;DHT22;13779;-33.886;151.198;2023-11-22T00:26:12;23.60;99.90
25991;DHT22;13779;-33.886;151.198;2023-11-22T00:28:42;23.60;99.90
25991;DHT22;13779;-33.886;151.198;2023-11-22T00:31:13;23.70;99.90
25991;DHT22;13779;-33.886;151.198;2023-11-22T00:33:44;23.60;99.90
25991;DHT22;13779;-33.886;151.198;2023-11-22T00:36:14;23.60;99.90
25991;DHT22;13779;-33.886;151.198;2023-11-22T00:38:46;23.70;99.90
25991;DHT22;13779;-33.886;151.198;2023-11-22T00:41:16;23.70;99.90
25991;DHT22;13779;-33.886;151.198;2023-11-22T00:43:47;23.70;99.90
25991;DHT22;13779;-33.886;151.198;2023-11-22T00:46:17;23.60;99.90
25991;DHT22;13779;-33.886;151.198;2023-11-22T00:48:47;23.60;99.90
25991;DHT22;13779;-33.886;151.198;2023-11-22T00:51:17;23.60;99.90
25991;DHT22;13779;-33.886;151.198;2023-11-22T00:53:48;23.60;99.90
25991;DHT22;13779;-33.886;151.198;2023-11-22T00:56:21;23.60;99.90
25991;DHT22;13779;-33.886;151.198;2023-11-22T00:58:52;23.70;99.90
25991;DHT22;13779;-33.886;151.198;2023-11-22T01:01:22;23.50;99.90
25991;DHT22;13779;-33.886;151.198;2023-11-22T01:03:52;23.50;99.90
25991;DHT22;13779;-33.886;151.198;2023-11-22T01:06:22;23.60;99.90
25991;DHT22;13779;-33.886;151.198;2023-11-22T01:08:52;23.60;99.90
25991;DHT22;13779;-33.886;151.198;2023-11-22T01:11:22;23.60;99.90
25991;DHT22;13779;-33.886;151.198;2023-11-22T01:13:53;23.70;99.90
25991;DHT22;13779;-33.886;151.198;2023-11-22T01:16:23;23.60;99.90
25991;DHT22;13779;-33.886;151.198;2023-11-22T01:18:53;23.60;99.90
25991;DHT22;13779;-33.886;151.198;2023-11-22T01:21:23;23.60;99.90
25991;DHT22;13779;-33.886;151.198;2023-11-22T01:23:54;23.60;99.90
25991;DHT22;13779;-33.886;151.198;2023-11-22T01:26:24;23.60;99.90
25991;DHT22;13779;-33.886;151.198;2023-11-22T01:28:54;23.60;99.90
25991;DHT22;13779;-33.886;151.198;2023-11-22T01:31:24;23.50;99.90
25991;DHT22;13779;-33.886;151.198;2023-11-22T01:33:56;23.60;99.90
25991;DHT22;13779;-33.886;151.198;2023-11-22T01:36:28;23.60;99.90
25991;DHT22;13779;-33.886;151.198;2023-11-22T01:38:58;23.70;99.90
25991;DHT22;13779;-33.886;151.198;2023-11-22T01:41:28;23.60;99.90
25991;DHT22;13779;-33.886;151.198;2023-11-22T01:43:58;23.60;99.90
25991;DHT22;13779;-33.886;151.198;2023-11-22T01:46:29;23.50;99.90
25991;DHT22;13779;-33.886;151.198;2023-11-22T01:48:59;23.60;99.90
25991;DHT22;13779;-33.886;151.198;2023-11-22T01:51:31;23.70;99.90
25991;DHT22;13779;-33.886;151.198;2023-11-22T01:54:01;23.80;99.90
25991;DHT22;13779;-33.886;151.198;2023-11-22T01:56:32;23.70;99.90
25991;DHT22;13779;-33.886;151.198;2023-11-22T01:59:04;23.80;99.90
25991;DHT22;13779;-33.886;151.198;2023-11-22T02:01:35;23.80;99.90
25991;DHT22;13779;-33.886;151.198;2023-11-22T02:04:06;23.80;99.90
25991;DHT22;13779;-33.886;151.198;2023-11-22T02:06:37;23.80;99.90
25991;DHT22;13779;-33.886;151.198;2023-11-22T02:09:08;23.70;99.90
25991;DHT22;13779;-33.886;151.198;2023-11-22T02:11:43;23.70;99.90
25991;DHT22;13779;-33.886;151.198;2023-11-22T02:14:17;23.70;99.90
25991;DHT22;13779;-33.886;151.198;2023-11-22T02:16:48;23.60;99.90
25991;DHT22;13779;-33.886;151.198;2023-11-22T02:19:19;23.60;99.90
25991;DHT22;13779;-33.886;151.198;2023-11-22T02:21:50;23.60;99.90
25991;DHT22;13779;-33.886;151.198;2023-11-22T02:24:22;23.60;99.90
25991;DHT22;13779;-33.886;151.198;2023-11-22T02:26:52;23.70;99.90
25991;DHT22;13779;-33.886;151.198;2023-11-22T02:29:23;23.70;99.90
25991;DHT22;13779;-33.886;151.198;2023-11-22T02:31:53;23.60;99.90
25991;DHT22;13779;-33.886;151.198;2023-11-22T02:34:24;23.60;99.90
25991;DHT22;13779;-33.886;151.198;2023-11-22T02:36:55;23.70;99.90
25991;DHT22;13779;-33.886;151.198;2023-11-22T02:39:49;23.70;99.90
25991;DHT22;13779;-33.886;151.198;2023-11-22T02:42:20;23.90;99.90
25991;DHT22;13779;-33.886;151.198;2023-11-22T02:44:54;23.90;99.90
25991;DHT22;13779;-33.886;151.198;2023-11-22T02:47:24;24.00;99.90
25991;DHT22;13779;-33.886;151.198;2023-11-22T02:49:54;23.90;99.90
25991;DHT22;13779;-33.886;151.198;2023-11-22T02:52:26;23.80;99.90
25991;DHT22;13779;-33.886;151.198;2023-11-22T02:54:57;23.80;99.90
25991;DHT22;13779;-33.886;151.198;2023-11-22T02:57:28;23.70;99.90
25991;DHT22;13779;-33.886;151.198;2023-11-22T02:59:58;23.70;99.90
25991;DHT22;13779;-33.886;151.198;2023-11-22T03:02:29;23.60;99.90
25991;DHT22;13779;-33.886;151.198;2023-11-22T03:04:59;23.80;99.90
25991;DHT22;13779;-33.886;151.198;2023-11-22T03:07:30;23.80;99.90
25991;DHT22;13779;-33.886;151.198;2023-11-22T03:10:01;23.70;99.90
25991;DHT22;13779;-33.886;151.198;2023-11-22T03:12:31;23.60;99.90
25991;DHT22;13779;-33.886;151.198;2023-11-22T03:15:02;23.70;99.90
25991;DHT22;13779;-33.886;151.198;2023-11-22T03:17:32;23.70;99.90
25991;DHT22;13779;-33.886;151.198;2023-11-22T03:20:03;23.60;99.90
25991;DHT22;13779;-33.886;151.198;2023-11-22T03:22:38;23.60;99.90
25991;DHT22;13779;-33.886;151.198;2023-11-22T03:25:09;23.80;99.90
25991;DHT22;13779;-33.886;151.198;2023-11-22T03:27:40;23.90;99.90
25991;DHT22;13779;-33.886;151.198;2023-11-22T03:30:11;23.90;99.90
25991;DHT22;13779;-33.886;151.198;2023-11-22T03:32:41;23.80;99.90
25991;DHT22;13779;-33.886;151.198;2023-11-22T03:35:13;23.90;99.90
25991;DHT22;13779;-33.886;151.198;2023-11-22T03:37:47;23.90;99.90
25991;DHT22;13779;-33.886;151.198;2023-11-22T03:40:21;24.00;99.90
25991;DHT22;13779;-33.886;151.198;2023-11-22T03:42:51;23.90;99.90
25991;DHT22;13779;-33.886;151.198;2023-11-22T03:45:22;23.90;99.90
25991;DHT22;13779;-33.886;151.198;2023-11-22T03:47:52;24.00;99.90
25991;DHT22;13779;-33.886;151.198;2023-11-22T03:50:23;24.10;99.90
25991;DHT22;13779;-33.886;151.198;2023-11-22T03:52:55;24.00;99.90
25991;DHT22;13779;-33.886;151.198;2023-11-22T03:55:25;23.90;99.90
25991;DHT22;13779;-33.886;151.198;2023-11-22T03:57:56;24.00;99.90
25991;DHT22;13779;-33.886;151.198;2023-11-22T04:00:26;24.00;99.90
25991;DHT22;13779;-33.886;151.198;2023-11-22T04:02:57;23.90;99.90
25991;DHT22;13779;-33.886;151.198;2023-11-22T04:05:30;23.90;99.90
25991;DHT22;13779;-33.886;151.198;2023-11-22T04:08:01;23.90;99.90
25991;DHT22;13779;-33.886;151.198;2023-11-22T04:10:32;23.90;99.90
25991;DHT22;13779;-33.886;151.198;2023-11-22T04:13:02;23.80;99.90
25991;DHT22;13779;-33.886;151.198;2023-11-22T04:15:34;23.60;99.90
25991;DHT22;13779;-33.886;151.198;2023-11-22T04:18:04;23.50;99.90
25991;DHT22;13779;-33.886;151.198;2023-11-22T04:20:35;23.40;99.90
25991;DHT22;13779;-33.886;151.198;2023-11-22T04:23:05;23.40;99.90
25991;DHT22;13779;-33.886;151.198;2023-11-22T04:25:36;23.30;99.90
25991;DHT22;13779;-33.886;151.198;2023-11-22T04:28:06;23.30;99.90
25991;DHT22;13779;-33.886;151.198;2023-11-22T04:30:38;23.40;99.90
25991;DHT22;13779;-33.886;151.198;2023-11-22T04:33:09;23.40;99.90
25991;DHT22;13779;-33.886;151.198;2023-11-22T04:35:39;23.40;99.90
25991;DHT22;13779;-33.886;151.198;2023-11-22T04:38:11;23.30;99.90
25991;DHT22;13779;-33.886;151.198;2023-11-22T04:40:42;23.40;99.90
25991;DHT22;13779;-33.886;151.198;2023-11-22T04:43:12;23.40;99.90
25991;DHT22;13779;-33.886;151.198;2023-11-22T04:45:43;23.30;99.90
25991;DHT22;13779;-33.886;151.198;2023-11-22T04:48:13;23.20;99.90
25991;DHT22;13779;-33.886;151.198;2023-11-22T04:50:44;23.30;99.90
25991;DHT22;13779;-33.886;151.198;2023-11-22T04:53:15;23.30;99.90
25991;DHT22;13779;-33.886;151.198;2023-11-22T04:55:50;23.30;99.90
25991;DHT22;13779;-33.886;151.198;2023-11-22T04:58:21;23.30;99.90
25991;DHT22;13779;-33.886;151.198;2023-11-22T05:00:51;23.30;99.90
25991;DHT22;13779;-33.886;151.198;2023-11-22T05:03:21;23.20;99.90
25991;DHT22;13779;-33.886;151.198;2023-11-22T05:05:53;23.20;99.90
25991;DHT22;13779;-33.886;151.198;2023-11-22T05:08:24;23.30;99.90
25991;DHT22;13779;-33.886;151.198;2023-11-22T05:10:55;23.20;99.90
25991;DHT22;13779;-33.886;151.198;2023-11-22T05:13:25;23.20;99.90
25991;DHT22;13779;-33.886;151.198;2023-11-22T05:15:56;23.10;99.90
25991;DHT22;13779;-33.886;151.198;2023-11-22T05:18:26;23.10;99.90
25991;DHT22;13779;-33.886;151.198;2023-11-22T05:20:57;23.20;99.90
25991;DHT22;13779;-33.886;151.198;2023-11-22T05:23:27;23.20;99.90
25991;DHT22;13779;-33.886;151.198;2023-11-22T05:25:58;23.10;99.90
25991;DHT22;13779;-33.886;151.198;2023-11-22T05:28:31;23.10;99.90
25991;DHT22;13779;-33.886;151.198;2023-11-22T05:31:03;23.10;99.90
25991;DHT22;13779;-33.886;151.198;2023-11-22T05:33:33;23.10;99.90
25991;DHT22;13779;-33.886;151.198;2023-11-22T05:36:04;23.00;99.90
25991;DHT22;13779;-33.886;151.198;2023-11-22T05:38:35;23.00;99.90
25991;DHT22;13779;-33.886;151.198;2023-11-22T05:41:07;22.90;99.90
25991;DHT22;13779;-33.886;151.198;2023-11-22T05:43:37;22.90;99.90
25991;DHT22;13779;-33.886;151.198;2023-11-22T05:46:09;22.90;99.90
25991;DHT22;13779;-33.886;151.198;2023-11-22T05:48:42;22.90;99.90
25991;DHT22;13779;-33.886;151.198;2023-11-22T05:51:12;23.00;99.90
25991;DHT22;13779;-33.886;151.198;2023-11-22T05:53:43;23.00;99.90
25991;DHT22;13779;-33.886;151.198;2023-11-22T05:56:13;22.90;99.90
25991;DHT22;13779;-33.886;151.198;2023-11-22T05:58:44;23.00;99.90
25991;DHT22;13779;-33.886;151.198;2023-11-22T06:01:15;22.90;99.90
25991;DHT22;13779;-33.886;151.198;2023-11-22T06:03:45;23.00;99.90
25991;DHT22;13779;-33.886;151.198;2023-11-22T06:06:16;23.00;99.90
25991;DHT22;13779;-33.886;151.198;2023-11-22T06:08:47;23.00;99.90
25991;DHT22;13779;-33.886;151.198;2023-11-22T06:11:17;23.10;99.90
25991;DHT22;13779;-33.886;151.198;2023-11-22T06:13:49;23.10;99.90
25991;DHT22;13779;-33.886;151.198;2023-11-22T06:16:19;23.10;99.90
25991;DHT22;13779;-33.886;151.198;2023-11-22T06:18:50;23.00;99.90
25991;DHT22;13779;-33.886;151.198;2023-11-22T06:21:20;23.00;99.90
25991;DHT22;13779;-33.886;151.198;2023-11-22T06:23:54;22.90;99.90
25991;DHT22;13779;-33.886;151.198;2023-11-22T06:26:28;22.90;99.90
25991;DHT22;13779;-33.886;151.198;2023-11-22T06:28:59;22.90;99.90
25991;DHT22;13779;-33.886;151.198;2023-11-22T06:31:29;22.80;99.90
25991;DHT22;13779;-33.886;151.198;2023-11-22T06:34:00;22.80;99.90
25991;DHT22;13779;-33.886;151.198;2023-11-22T06:36:31;22.70;99.90
25991;DHT22;13779;-33.886;151.198;2023-11-22T06:39:01;22.60;99.90
25991;DHT22;13779;-33.886;151.198;2023-11-22T06:41:32;22.70;99.90
25991;DHT22;13779;-33.886;151.198;2023-11-22T06:44:03;22.60;99.90
25991;DHT22;13779;-33.886;151.198;2023-11-22T06:46:33;22.70;99.90
25991;DHT22;13779;-33.886;151.198;2023-11-22T06:49:04;22.60;99.90
25991;DHT22;13779;-33.886;151.198;2023-11-22T06:51:35;22.60;99.90
25991;DHT22;13779;-33.886;151.198;2023-11-22T06:54:05;22.60;99.90
25991;DHT22;13779;-33.886;151.198;2023-11-22T06:56:36;22.60;99.90
25991;DHT22;13779;-33.886;151.198;2023-11-22T06:59:06;22.60;99.90
25991;DHT22;13779;-33.886;151.198;2023-11-22T07:01:36;22.50;99.90
25991;DHT22;13779;-33.886;151.198;2023-11-22T07:04:06;22.40;99.90
25991;DHT22;13779;-33.886;151.198;2023-11-22T07:06:36;22.40;99.90
25991;DHT22;13779;-33.886;151.198;2023-11-22T07:09:07;22.40;99.90
25991;DHT22;13779;-33.886;151.198;2023-11-22T07:11:41;22.40;99.90
25991;DHT22;13779;-33.886;151.198;2023-11-22T07:14:13;22.40;99.90
25991;DHT22;13779;-33.886;151.198;2023-11-22T07:16:43;22.40;99.90
25991;DHT22;13779;-33.886;151.198;2023-11-22T07:19:13;22.40;99.90
25991;DHT22;13779;-33.886;151.198;2023-11-22T07:21:43;22.40;99.90
25991;DHT22;13779;-33.886;151.198;2023-11-22T07:24:13;22.40;99.90
25991;DHT22;13779;-33.886;151.198;2023-11-22T07:26:44;22.40;99.90
25991;DHT22;13779;-33.886;151.198;2023-11-22T07:29:14;22.40;99.90
25991;DHT22;13779;-33.886;151.198;2023-11-22T07:31:45;22.40;99.90
25991;DHT22;13779;-33.886;151.198;2023-11-22T07:34:15;22.50;99.90
25991;DHT22;13779;-33.886;151.198;2023-11-22T07:36:48;22.50;99.90
25991;DHT22;13779;-33.886;151.198;2023-11-22T07:39:18;22.40;99.90
25991;DHT22;13779;-33.886;151.198;2023-11-22T07:41:48;22.40;99.90
25991;DHT22;13779;-33.886;151.198;2023-11-22T07:44:20;22.40;99.90
25991;DHT22;13779;-33.886;151.198;2023-11-22T07:46:51;22.40;99.90
25991;DHT22;13779;-33.886;151.198;2023-11-22T07:49:21;22.40;99.90
25991;DHT22;13779;-33.886;151.198;2023-11-22T07:51:51;22.40;99.90
25991;DHT22;13779;-33.886;151.198;2023-11-22T07:54:23;22.40;99.90
25991;DHT22;13779;-33.886;151.198;2023-11-22T07:56:53;22.30;99.90
25991;DHT22;13779;-33.886;151.198;2023-11-22T07:59:23;22.30;99.90
25991;DHT22;13779;-33.886;151.198;2023-11-22T08:01:53;22.20;99.90
25991;DHT22;13779;-33.886;151.198;2023-11-22T08:04:24;22.20;99.90
25991;DHT22;13779;-33.886;151.198;2023-11-22T08:06:55;22.20;99.90
25991;DHT22;13779;-33.886;151.198;2023-11-22T08:09:26;22.30;99.90
25991;DHT22;13779;-33.886;151.198;2023-11-22T08:12:01;22.30;99.90
25991;DHT22;13779;-33.886;151.198;2023-11-22T08:14:33;22.20;99.90
25991;DHT22;13779;-33.886;151.198;2023-11-22T08:17:03;22.20;99.90
25991;DHT22;13779;-33.886;151.198;2023-11-22T08:19:35;22.20;99.90
25991;DHT22;13779;-33.886;151.198;2023-11-22T08:22:05;22.20;99.90
25991;DHT22;13779;-33.886;151.198;2023-11-22T08:24:35;22.20;99.90
25991;DHT22;13779;-33.886;151.198;2023-11-22T08:27:06;22.10;99.90
25991;DHT22;13779;-33.886;151.198;2023-11-22T08:29:36;22.10;99.90
25991;DHT22;13779;-33.886;151.198;2023-11-22T08:32:07;22.10;99.90
25991;DHT22;13779;-33.886;151.198;2023-11-22T08:34:37;22.00;99.90
25991;DHT22;13779;-33.886;151.198;2023-11-22T08:37:08;22.10;99.90
25991;DHT22;13779;-33.886;151.198;2023-11-22T08:39:39;22.10;99.90
25991;DHT22;13779;-33.886;151.198;2023-11-22T08:42:09;22.10;99.90
25991;DHT22;13779;-33.886;151.198;2023-11-22T08:44:40;22.00;99.90
25991;DHT22;13779;-33.886;151.198;2023-11-22T08:47:11;22.00;99.90
25991;DHT22;13779;-33.886;151.198;2023-11-22T08:49:42;22.00;99.90
25991;DHT22;13779;-33.886;151.198;2023-11-22T08:52:13;22.00;99.90
25991;DHT22;13779;-33.886;151.198;2023-11-22T08:54:43;21.90;99.90
25991;DHT22;13779;-33.886;151.198;2023-11-22T08:57:14;22.00;99.90
25991;DHT22;13779;-33.886;151.198;2023-11-22T08:59:45;22.00;99.90
25991;DHT22;13779;-33.886;151.198;2023-11-22T09:02:18;21.90;99.90
25991;DHT22;13779;-33.886;151.198;2023-11-22T09:04:52;21.90;99.90
25991;DHT22;13779;-33.886;151.198;2023-11-22T09:07:22;21.90;99.90
25991;DHT22;13779;-33.886;151.198;2023-11-22T09:09:53;21.80;99.90
25991;DHT22;13779;-33.886;151.198;2023-11-22T09:12:23;21.90;99.90
25991;DHT22;13779;-33.886;151.198;2023-11-22T09:14:57;22.10;99.90
25991;DHT22;13779;-33.886;151.198;2023-11-22T09:17:27;22.20;99.90
25991;DHT22;13779;-33.886;151.198;2023-11-22T09:19:58;22.10;99.90
25991;DHT22;13779;-33.886;151.198;2023-11-22T09:22:28;22.20;99.90
25991;DHT22;13779;-33.886;151.198;2023-11-22T09:25:03;22.20;99.90
25991;DHT22;13779;-33.886;151.198;2023-11-22T09:27:34;22.00;99.90
25991;DHT22;13779;-33.886;151.198;2023-11-22T09:30:07;22.00;99.90
25991;DHT22;13779;-33.886;151.198;2023-11-22T09:32:47;21.90;99.90
25991;DHT22;13779;-33.886;151.198;2023-11-22T09:35:18;21.90;99.90
25991;DHT22;13779;-33.886;151.198;2023-11-22T09:37:48;21.80;99.90
25991;DHT22;13779;-33.886;151.198;2023-11-22T09:40:22;21.80;99.90
25991;DHT22;13779;-33.886;151.198;2023-11-22T09:42:53;21.80;99.90
25991;DHT22;13779;-33.886;151.198;2023-11-22T09:45:25;21.80;99.90
25991;DHT22;13779;-33.886;151.198;2023-11-22T09:47:59;21.70;99.90
25991;DHT22;13779;-33.886;151.198;2023-11-22T09:50:35;21.70;99.90
25991;DHT22;13779;-33.886;151.198;2023-11-22T09:53:14;21.70;99.90
25991;DHT22;13779;-33.886;151.198;2023-11-22T09:55:46;21.70;99.90
25991;DHT22;13779;-33.886;151.198;2023-11-22T09:58:16;21.70;99.90
25991;DHT22;13779;-33.886;151.198;2023-11-22T10:00:47;21.70;99.90
25991;DHT22;13779;-33.886;151.198;2023-11-22T10:03:18;21.70;99.90
25991;DHT22;13779;-33.886;151.198;2023-11-22T10:05:50;21.70;99.90
25991;DHT22;13779;-33.886;151.198;2023-11-22T10:08:22;21.70;99.90
25991;DHT22;13779;-33.886;151.198;2023-11-22T10:10:56;21.70;99.90
25991;DHT22;13779;-33.886;151.198;2023-11-22T10:13:27;21.70;99.90
25991;DHT22;13779;-33.886;151.198;2023-11-22T10:16:10;21.70;99.90
25991;DHT22;13779;-33.886;151.198;2023-11-22T10:18:46;21.70;99.90
25991;DHT22;13779;-33.886;151.198;2023-11-22T10:21:25;21.70;99.90
25991;DHT22;13779;-33.886;151.198;2023-11-22T10:24:00;21.70;99.90
25991;DHT22;13779;-33.886;151.198;2023-11-22T10:26:32;21.80;99.90
25991;DHT22;13779;-33.886;151.198;2023-11-22T10:29:05;21.80;99.90
25991;DHT22;13779;-33.886;151.198;2023-11-22T10:31:35;21.70;99.90
25991;DHT22;13779;-33.886;151.198;2023-11-22T10:34:09;21.70;99.90
25991;DHT22;13779;-33.886;151.198;2023-11-22T10:36:40;21.70;99.90
25991;DHT22;13779;-33.886;151.198;2023-11-22T10:39:11;21.70;99.90
25991;DHT22;13779;-33.886;151.198;2023-11-22T10:41:46;21.70;99.90
25991;DHT22;13779;-33.886;151.198;2023-11-22T10:44:19;21.70;99.90
25991;DHT22;13779;-33.886;151.198;2023-11-22T10:46:50;21.70;99.90
25991;DHT22;13779;-33.886;151.198;2023-11-22T10:49:22;21.80;99.90
25991;DHT22;13779;-33.886;151.198;2023-11-22T10:51:53;21.80;99.90
25991;DHT22;13779;-33.886;151.198;2023-11-22T10:54:24;21.80;99.90
25991;DHT22;13779;-33.886;151.198;2023-11-22T10:56:58;21.80;99.90
25991;DHT22;13779;-33.886;151.198;2023-11-22T10:59:31;21.80;99.90
25991;DHT22;13779;-33.886;151.198;2023-11-22T11:02:02;21.80;99.90
25991;DHT22;13779;-33.886;151.198;2023-11-22T11:04:39;21.80;99.90
25991;DHT22;13779;-33.886;151.198;2023-11-22T11:07:14;21.80;99.90
25991;DHT22;13779;-33.886;151.198;2023-11-22T11:09:49;21.80;99.90
25991;DHT22;13779;-33.886;151.198;2023-11-22T11:12:21;21.80;99.90
25991;DHT22;13779;-33.886;151.198;2023-11-22T11:14:52;21.80;99.90
25991;DHT22;13779;-33.886;151.198;2023-11-22T11:17:22;21.80;99.90
25991;DHT22;13779;-33.886;151.198;2023-11-22T11:19:53;21.70;99.90
25991;DHT22;13779;-33.886;151.198;2023-11-22T11:22:22;21.70;99.90
25991;DHT22;13779;-33.886;151.198;2023-11-22T11:24:59;21.70;99.90
25991;DHT22;13779;-33.886;151.198;2023-11-22T11:27:32;21.70;99.90
25991;DHT22;13779;-33.886;151.198;2023-11-22T11:32:51;21.70;99.90
25991;DHT22;13779;-33.886;151.198;2023-11-22T11:35:36;21.80;99.90
25991;DHT22;13779;-33.886;151.198;2023-11-22T11:38:06;21.70;99.90
25991;DHT22;13779;-33.886;151.198;2023-11-22T11:40:38;21.70;99.90
25991;DHT22;13779;-33.886;151.198;2023-11-22T11:43:09;21.70;99.90
25991;DHT22;13779;-33.886;151.198;2023-11-22T11:45:39;21.70;99.90
25991;DHT22;13779;-33.886;151.198;2023-11-22T11:48:14;21.70;99.90
25991;DHT22;13779;-33.886;151.198;2023-11-22T11:50:45;21.70;99.90
25991;DHT22;13779;-33.886;151.198;2023-11-22T11:53:18;21.70;99.90
25991;DHT22;13779;-33.886;151.198;2023-11-22T11:55:48;21.70;99.90
25991;DHT22;13779;-33.886;151.198;2023-11-22T11:58:20;21.70;99.90
25991;DHT22;13779;-33.886;151.198;2023-11-22T12:00:51;21.70;99.90
25991;DHT22;13779;-33.886;151.198;2023-11-22T12:03:21;21.60;99.90
25991;DHT22;13779;-33.886;151.198;2023-11-22T12:05:52;21.70;99.90
25991;DHT22;13779;-33.886;151.198;2023-11-22T12:08:21;21.60;99.90
25991;DHT22;13779;-33.886;151.198;2023-11-22T12:10:51;21.60;99.90
25991;DHT22;13779;-33.886;151.198;2023-11-22T12:13:21;21.60;99.90
25991;DHT22;13779;-33.886;151.198;2023-11-22T12:15:54;21.60;99.90
25991;DHT22;13779;-33.886;151.198;2023-11-22T12:18:23;21.60;99.90
25991;DHT22;13779;-33.886;151.198;2023-11-22T12:20:56;21.60;99.90
25991;DHT22;13779;-33.886;151.198;2023-11-22T12:23:27;21.60;99.90
25991;DHT22;13779;-33.886;151.198;2023-11-22T12:25:57;21.60;99.90
25991;DHT22;13779;-33.886;151.198;2023-11-22T12:28:26;21.60;99.90
25991;DHT22;13779;-33.886;151.198;2023-11-22T12:31:05;21.70;99.90
25991;DHT22;13779;-33.886;151.198;2023-11-22T12:33:36;21.60;99.90
25991;DHT22;13779;-33.886;151.198;2023-11-22T12:36:05;21.60;99.90
25991;DHT22;13779;-33.886;151.198;2023-11-22T12:38:35;21.60;99.90
25991;DHT22;13779;-33.886;151.198;2023-11-22T12:41:05;21.60;99.90
25991;DHT22;13779;-33.886;151.198;2023-11-22T12:43:35;21.60;99.90
25991;DHT22;13779;-33.886;151.198;2023-11-22T12:46:12;21.60;99.90
25991;DHT22;13779;-33.886;151.198;2023-11-22T12:48:45;21.60;99.90
25991;DHT22;13779;-33.886;151.198;2023-11-22T12:51:15;21.70;99.90
25991;DHT22;13779;-33.886;151.198;2023-11-22T12:53:45;21.60;99.90
25991;DHT22;13779;-33.886;151.198;2023-11-22T12:56:15;21.60;99.90
25991;DHT22;13779;-33.886;151.198;2023-11-22T12:58:45;21.60;99.90
25991;DHT22;13779;-33.886;151.198;2023-11-22T13:01:14;21.60;99.90
25991;DHT22;13779;-33.886;151.198;2023-11-22T13:28:05;21.60;99.90
25991;DHT22;13779;-33.886;151.198;2023-11-22T13:30:32;21.50;99.90
25991;DHT22;13779;-33.886;151.198;2023-11-22T13:33:02;21.50;99.90
25991;DHT22;13779;-33.886;151.198;2023-11-22T13:35:31;21.50;99.90
25991;DHT22;13779;-33.886;151.198;2023-11-22T13:38:06;21.40;99.90
25991;DHT22;13779;-33.886;151.198;2023-11-22T13:40:39;21.40;99.90
25991;DHT22;13779;-33.886;151.198;2023-11-22T13:43:09;21.50;99.90
25991;DHT22;13779;-33.886;151.198;2023-11-22T13:45:38;21.50;99.90
25991;DHT22;13779;-33.886;151.198;2023-11-22T13:48:10;21.50;99.90
25991;DHT22;13779;-33.886;151.198;2023-11-22T13:50:40;21.50;99.90
25991;DHT22;13779;-33.886;151.198;2023-11-22T13:53:11;21.40;99.90
25991;DHT22;13779;-33.886;151.198;2023-11-22T13:55:41;21.40;99.90
25991;DHT22;13779;-33.886;151.198;2023-11-22T13:58:11;21.40;99.90
25991;DHT22;13779;-33.886;151.198;2023-11-22T14:00:40;21.40;99.90
25991;DHT22;13779;-33.886;151.198;2023-11-22T14:03:10;21.30;99.90
25991;DHT22;13779;-33.886;151.198;2023-11-22T14:05:39;21.30;99.90
25991;DHT22;13779;-33.886;151.198;2023-11-22T14:08:09;21.20;99.90
25991;DHT22;13779;-33.886;151.198;2023-11-22T14:10:40;21.20;99.90
25991;DHT22;13779;-33.886;151.198;2023-11-22T14:13:10;21.20;99.90
25991;DHT22;13779;-33.886;151.198;2023-11-22T14:15:41;21.30;99.90
25991;DHT22;13779;-33.886;151.198;2023-11-22T14:18:10;21.30;99.90
25991;DHT22;13779;-33.886;151.198;2023-11-22T14:20:40;21.20;99.90
25991;DHT22;13779;-33.886;151.198;2023-11-22T14:23:09;21.20;99.90
25991;DHT22;13779;-33.886;151.198;2023-11-22T14:25:39;21.20;99.90
25991;DHT22;13779;-33.886;151.198;2023-11-22T14:28:09;21.20;99.90
25991;DHT22;13779;-33.886;151.198;2023-11-22T14:30:39;21.20;99.90
25991;DHT22;13779;-33.886;151.198;2023-11-22T14:33:10;21.10;99.90
25991;DHT22;13779;-33.886;151.198;2023-11-22T14:35:40;21.20;99.90
25991;DHT22;13779;-33.886;151.198;2023-11-22T14:38:12;21.20;99.90
25991;DHT22;13779;-33.886;151.198;2023-11-22T14:40:42;21.10;99.90
25991;DHT22;13779;-33.886;151.198;2023-11-22T14:43:12;21.10;99.90
25991;DHT22;13779;-33.886;151.198;2023-11-22T14:45:42;21.10;99.90
25991;DHT22;13779;-33.886;151.198;2023-11-22T14:48:12;21.10;99.90
25991;DHT22;13779;-33.886;151.198;2023-11-22T14:50:43;21.20;99.90
25991;DHT22;13779;-33.886;151.198;2023-11-22T14:53:13;21.20;99.90
25991;DHT22;13779;-33.886;151.198;2023-11-22T14:55:43;21.20;99.90
25991;DHT22;13779;-33.886;151.198;2023-11-22T14:58:12;21.20;99.90
25991;DHT22;13779;-33.886;151.198;2023-11-22T15:00:43;21.10;99.90
25991;DHT22;13779;-33.886;151.198;2023-11-22T15:03:13;21.10;99.90
25991;DHT22;13779;-33.886;151.198;2023-11-22T15:05:43;21.00;99.90
25991;DHT22;13779;-33.886;151.198;2023-11-22T15:08:12;21.00;99.90
25991;DHT22;13779;-33.886;151.198;2023-11-22T15:10:42;21.00;99.90
25991;DHT22;13779;-33.886;151.198;2023-11-22T15:13:12;21.00;99.90
25991;DHT22;13779;-33.886;151.198;2023-11-22T15:15:44;21.00;99.90
25991;DHT22;13779;-33.886;151.198;2023-11-22T15:18:14;21.00;99.90
25991;DHT22;13779;-33.886;151.198;2023-11-22T15:20:44;21.00;99.90
25991;DHT22;13779;-33.886;151.198;2023-11-22T15:23:14;21.00;99.90
25991;DHT22;13779;-33.886;151.198;2023-11-22T15:25:43;21.00;99.90
25991;DHT22;13779;-33.886;151.198;2023-11-22T15:28:13;21.10;99.90
25991;DHT22;13779;-33.886;151.198;2023-11-22T15:30:54;21.00;99.90
25991;DHT22;13779;-33.886;151.198;2023-11-22T15:33:28;21.00;99.90
25991;DHT22;13779;-33.886;151.198;2023-11-22T15:35:58;21.00;99.90
25991;DHT22;13779;-33.886;151.198;2023-11-22T15:38:28;21.00;99.90